Time;durP1;ratioP1;P1;durP2;ratioP2;P2;SDS_P1;SDS_P2;PMS_P1;PMS_P2;Temp;Humidity;BMP_temperature;BMP_pressure;BME280_temperature;BME280_humidity;BME280_pressure;Samples;Min_cycle;Max_cycle;Signal;HPM_P1;HPM_P2
2021/01/18 00:00:15;;;;;;;18.70;10.23;;;;;;;2.10;86.04;101244.41;4981847;28;20041;-72
2021/01/18 00:02:40;;;;;;;23.27;12.88;;;;;;;2.21;85.16;101241.22;4969134;28;20034;-72
2021/01/18 00:05:08;;;;;;;22.30;11.43;;;;;;;2.24;85.25;101248.91;4973358;28;20038;-72
2021/01/18 00:07:50;;;;;;;26.95;14.18;;;;;;;2.19;86.00;101245.66;4981525;28;20026;-72
2021/01/18 00:10:18;;;;;;;20.45;10.90;;;;;;;2.13;86.10;101241.63;4975057;28;20018;-72
2021/01/18 00:12:48;;;;;;;23.00;12.05;;;;;;;2.21;85.84;101245.59;4987508;28;20030;-72
2021/01/18 00:15:15;;;;;;;19.27;10.55;;;;;;;2.17;86.35;101241.47;4977342;28;20038;-74
2021/01/18 00:17:41;;;;;;;21.55;11.40;;;;;;;2.26;85.40;101246.19;4986484;28;20074;-74
2021/01/18 00:20:09;;;;;;;17.15;9.70;;;;;;;2.20;86.21;101244.78;4991985;28;20492;-74
2021/01/18 00:22:39;;;;;;;21.42;10.07;;;;;;;2.21;85.92;101232.56;4985512;28;20023;-74
2021/01/18 00:25:12;;;;;;;17.70;9.43;;;;;;;2.17;86.42;101242.31;4980959;28;20504;-72
2021/01/18 00:27:39;;;;;;;24.98;12.63;;;;;;;2.26;85.74;101241.81;4981115;28;20122;-74
2021/01/18 00:30:24;;;;;;;22.80;13.23;;;;;;;2.32;85.59;101245.88;4978261;28;20058;-74
2021/01/18 00:32:51;;;;;;;25.65;12.05;;;;;;;2.34;85.40;101231.84;4981909;28;20091;-72
2021/01/18 00:35:18;;;;;;;26.05;12.55;;;;;;;2.34;85.22;101239.66;4974722;28;20045;-74
2021/01/18 00:37:51;;;;;;;21.45;11.75;;;;;;;2.29;86.07;101236.47;4984989;28;20468;-73
2021/01/18 00:40:20;;;;;;;21.58;11.15;;;;;;;2.32;86.02;101241.50;4978429;28;20038;-72
2021/01/18 00:42:45;;;;;;;20.13;10.35;;;;;;;2.33;86.08;101244.94;4988294;28;20027;-74
2021/01/18 00:45:13;;;;;;;24.58;12.15;;;;;;;2.35;85.72;101248.34;4979598;28;20038;-71
2021/01/18 00:47:43;;;;;;;16.00;8.65;;;;;;;2.34;86.22;101250.09;4982195;28;20045;-74
2021/01/18 00:50:10;;;;;;;21.63;12.00;;;;;;;2.29;86.40;101252.13;4982172;28;20037;-74
2021/01/18 00:52:39;;;;;;;13.05;7.07;;;;;;;2.18;88.01;101249.22;4972919;28;20038;-74
2021/01/18 00:55:05;;;;;;;22.25;11.13;;;;;;;2.27;86.12;101250.50;4969976;28;20023;-72
2021/01/18 00:57:34;;;;;;;26.00;12.50;;;;;;;2.28;86.87;101246.97;4981565;28;20040;-73
2021/01/18 00:59:59;;;;;;;37.30;16.38;;;;;;;2.36;86.22;101247.44;4981101;28;20041;-73
2021/01/18 01:02:25;;;;;;;28.15;12.10;;;;;;;2.34;86.22;101244.06;4981452;28;20121;-74
2021/01/18 01:04:51;;;;;;;28.05;15.40;;;;;;;2.39;86.01;101241.19;4981659;28;20063;-71
2021/01/18 01:07:16;;;;;;;25.15;12.70;;;;;;;2.33;87.10;101235.34;4977218;28;20456;-73
2021/01/18 01:09:41;;;;;;;26.85;12.95;;;;;;;2.30;86.56;101238.13;4973132;28;20051;-71
2021/01/18 01:12:07;;;;;;;20.70;11.05;;;;;;;2.23;88.25;101241.16;4987909;28;20053;-71
2021/01/18 01:14:33;;;;;;;20.88;10.23;;;;;;;2.24;87.58;101248.03;4972842;28;20029;-71
2021/01/18 01:16:58;;;;;;;17.25;9.63;;;;;;;2.19;88.19;101235.25;4979509;28;20039;-73
2021/01/18 01:19:23;;;;;;;14.65;8.13;;;;;;;2.07;89.98;101247.19;4973123;28;20027;-71
2021/01/18 01:21:49;;;;;;;22.88;11.50;;;;;;;2.14;87.60;101242.47;4981415;28;20038;-71
2021/01/18 01:24:19;;;;;;;34.42;15.25;;;;;;;2.27;86.87;101251.34;4975441;28;20030;-70
2021/01/18 01:26:46;;;;;;;23.40;12.60;;;;;;;2.23;87.51;101247.22;4975284;28;20365;-71
2021/01/18 01:29:11;;;;;;;25.70;13.00;;;;;;;2.26;87.30;101251.41;4974814;28;20065;-73
2021/01/18 01:31:36;;;;;;;22.90;11.90;;;;;;;2.27;87.21;101248.75;4980120;28;20066;-71
2021/01/18 01:34:03;;;;;;;27.60;12.25;;;;;;;2.29;87.45;101259.13;4973588;28;20046;-71
2021/01/18 01:36:28;;;;;;;22.80;12.00;;;;;;;2.25;87.81;101261.03;4981092;28;20062;-71
2021/01/18 01:38:53;;;;;;;29.25;13.38;;;;;;;2.30;86.85;101256.41;4975781;28;20069;-73
2021/01/18 01:41:18;;;;;;;26.00;12.82;;;;;;;2.28;87.24;101263.47;4979930;28;20117;-73
2021/01/18 01:43:44;;;;;;;29.23;12.45;;;;;;;2.29;87.12;101269.56;4977925;28;20078;-73
2021/01/18 01:46:10;;;;;;;17.02;9.30;;;;;;;2.17;89.46;101260.59;4981076;28;20034;-71
2021/01/18 01:48:35;;;;;;;24.70;12.57;;;;;;;2.27;87.34;101272.22;4976252;28;20117;-71
2021/01/18 01:51:01;;;;;;;22.30;11.50;;;;;;;2.28;86.91;101266.06;4983469;28;20044;-71
2021/01/18 01:53:29;;;;;;;24.98;12.27;;;;;;;2.28;87.18;101268.69;4979206;28;20029;-71
2021/01/18 01:55:55;;;;;;;27.92;12.98;;;;;;;2.30;87.00;101268.59;4978519;28;20034;-71
2021/01/18 01:58:21;;;;;;;28.35;12.80;;;;;;;2.26;87.21;101267.06;4980465;28;20044;-71
2021/01/18 02:00:47;;;;;;;27.40;13.70;;;;;;;2.32;86.90;101267.59;4985343;28;20473;-71
2021/01/18 02:03:19;;;;;;;18.80;10.77;;;;;;;2.21;88.22;101267.31;4981826;28;20053;-71
2021/01/18 02:05:45;;;;;;;16.50;9.63;;;;;;;2.20;88.19;101273.47;4975505;28;20027;-71
2021/01/18 02:08:10;;;;;;;17.63;9.02;;;;;;;2.19;87.86;101269.16;4979790;28;20384;-71
2021/01/18 02:10:37;;;;;;;15.23;8.05;;;;;;;2.17;87.92;101272.78;4976901;28;20391;-71
2021/01/18 02:13:18;;;;;;;17.90;8.70;;;;;;;2.18;88.26;101284.91;4989900;28;20475;-71
2021/01/18 02:15:56;;;;;;;26.95;12.32;;;;;;;2.20;88.11;101273.47;4974858;28;20038;-73
2021/01/18 02:18:52;;;;;;;18.50;9.23;;;;;;;2.17;87.39;101281.47;4971836;28;20034;-71
2021/01/18 02:21:36;;;;;;;25.42;12.55;;;;;;;2.13;88.77;101287.75;4974152;28;20046;-71
2021/01/18 02:24:10;;;;;;;18.75;9.70;;;;;;;2.02;89.72;101284.84;4971283;28;20029;-71
2021/01/18 02:26:45;;;;;;;18.95;10.40;;;;;;;1.98;89.51;101285.91;4982878;28;20555;-71
2021/01/18 02:29:23;;;;;;;15.48;8.82;;;;;;;1.88;90.65;101289.00;4975503;28;20050;-71
2021/01/18 02:32:16;;;;;;;24.23;12.32;;;;;;;1.81;91.36;101292.84;4971440;28;20424;-71
2021/01/18 02:35:06;;;;;;;19.00;10.18;;;;;;;1.85;90.90;101286.53;4975087;28;20507;-71
2021/01/18 02:38:00;;;;;;;13.65;8.43;;;;;;;1.82;91.05;101291.91;4981656;28;20388;-71
2021/01/18 02:40:45;;;;;;;9.57;5.50;;;;;;;1.88;89.34;101293.34;4974217;28;20823;-71
2021/01/18 02:43:15;;;;;;;31.58;13.52;;;;;;;1.96;88.37;101283.41;4973807;28;20464;-71
2021/01/18 02:45:41;;;;;;;34.23;17.43;;;;;;;2.09;87.82;101283.59;4976998;28;20045;-71
2021/01/18 02:48:09;;;;;;;25.40;13.05;;;;;;;2.07;88.02;101291.53;4972102;28;20492;-71
2021/01/18 02:50:36;;;;;;;23.10;12.70;;;;;;;2.07;87.79;101288.06;4985606;28;20121;-71
2021/01/18 02:53:03;;;;;;;29.63;14.07;;;;;;;2.11;87.81;101287.81;4976933;28;20149;-71
2021/01/18 02:55:29;;;;;;;26.25;13.15;;;;;;;2.09;87.62;101286.22;4980431;28;20034;-71
2021/01/18 02:58:01;;;;;;;23.17;13.13;;;;;;;2.10;88.69;101287.91;4985350;28;20113;-73
2021/01/18 03:00:33;;;;;;;24.90;12.00;;;;;;;2.09;89.15;101291.44;4978913;28;20042;-74
2021/01/18 03:03:32;;;;;;;27.58;12.82;;;;;;;2.10;88.12;101298.34;4976087;28;20542;-71
2021/01/18 03:06:08;;;;;;;29.48;13.45;;;;;;;2.11;87.96;101295.66;4981056;28;20040;-72
2021/01/18 03:08:36;;;;;;;26.25;13.43;;;;;;;2.15;87.80;101298.13;4976090;28;20384;-71
2021/01/18 03:11:07;;;;;;;17.98;10.00;;;;;;;2.11;87.78;101294.81;4982336;28;20041;-71
2021/01/18 03:13:47;;;;;;;20.45;11.05;;;;;;;2.12;87.76;101293.88;4973472;28;20034;-71
2021/01/18 03:16:21;;;;;;;27.15;13.98;;;;;;;2.15;87.63;101300.72;4976791;28;20392;-71
2021/01/18 03:18:49;;;;;;;17.85;9.98;;;;;;;2.07;88.66;101303.72;4976250;28;20077;-71
2021/01/18 03:21:16;;;;;;;29.20;14.05;;;;;;;2.15;87.94;101309.41;4973676;28;20038;-71
2021/01/18 03:23:42;;;;;;;27.65;12.95;;;;;;;2.15;87.83;101306.78;4970418;28;20037;-71
2021/01/18 03:26:08;;;;;;;18.23;10.13;;;;;;;2.03;90.03;101302.19;4978986;28;20061;-74
2021/01/18 03:28:33;;;;;;;16.20;9.13;;;;;;;1.92;90.73;101302.72;4971033;28;20026;-73
2021/01/18 03:30:58;;;;;;;13.40;7.90;;;;;;;1.93;90.03;101309.63;4979275;28;20038;-71
2021/01/18 03:33:24;;;;;;;20.40;10.85;;;;;;;1.85;90.86;101304.78;4971280;28;20021;-73
2021/01/18 03:35:53;;;;;;;17.98;9.43;;;;;;;1.84;90.90;101304.88;4978772;28;20613;-73
2021/01/18 03:38:19;;;;;;;10.70;6.60;;;;;;;1.83;91.59;101305.78;4973910;28;20117;-73
2021/01/18 03:40:44;;;;;;;21.08;10.43;;;;;;;1.94;89.41;101302.66;4977541;28;20491;-73
2021/01/18 03:43:10;;;;;;;22.35;12.65;;;;;;;2.01;89.43;101301.44;4974624;28;20033;-72
2021/01/18 03:45:43;;;;;;;25.73;12.40;;;;;;;2.06;88.99;101304.63;4983488;28;20038;-72
2021/01/18 03:48:09;;;;;;;24.77;12.43;;;;;;;2.07;88.89;101312.41;4983118;28;20046;-73
2021/01/18 03:50:36;;;;;;;13.88;8.60;;;;;;;2.00;90.76;101310.16;4980375;28;20042;-73
2021/01/18 03:53:01;;;;;;;20.13;10.57;;;;;;;1.98;90.02;101315.47;4985934;28;20061;-71
2021/01/18 03:55:27;;;;;;;24.83;14.20;;;;;;;2.11;88.63;101305.25;4981224;28;20062;-72
2021/01/18 03:57:55;;;;;;;28.08;12.35;;;;;;;2.10;89.01;101307.03;4981025;28;20030;-73
2021/01/18 04:00:23;;;;;;;18.75;10.13;;;;;;;2.01;89.79;101314.47;4980002;28;20121;-74
2021/01/18 04:02:51;;;;;;;17.40;9.32;;;;;;;1.94;90.64;101321.75;4986579;28;20373;-73
2021/01/18 04:05:17;;;;;;;22.15;11.30;;;;;;;1.90;89.97;101318.44;4980051;28;20518;-74
2021/01/18 04:07:42;;;;;;;14.70;8.35;;;;;;;1.88;90.19;101322.03;4980658;28;20066;-71
2021/01/18 04:10:09;;;;;;;18.30;10.48;;;;;;;1.91;89.83;101311.47;4975943;28;20057;-71
2021/01/18 04:12:42;;;;;;;16.60;8.27;;;;;;;1.91;90.28;101311.47;4986946;28;20033;-72
2021/01/18 04:15:09;;;;;;;21.70;11.75;;;;;;;2.03;88.92;101310.03;4980004;28;20018;-71
2021/01/18 04:17:35;;;;;;;24.95;12.00;;;;;;;2.04;89.09;101309.09;4975822;28;20112;-71
2021/01/18 04:20:01;;;;;;;23.60;12.50;;;;;;;2.07;88.55;101312.41;4978411;28;20037;-71
2021/01/18 04:22:26;;;;;;;16.05;8.55;;;;;;;1.99;90.33;101305.88;4980499;28;20041;-71
2021/01/18 04:24:51;;;;;;;20.90;11.23;;;;;;;2.01;89.23;101304.03;4977201;28;20053;-71
2021/01/18 04:27:17;;;;;;;27.30;13.00;;;;;;;2.12;88.32;101312.13;4985177;28;20058;-72
2021/01/18 04:29:42;;;;;;;22.85;11.70;;;;;;;2.11;88.09;101313.06;4984628;28;20034;-72
2021/01/18 04:32:08;;;;;;;32.47;13.30;;;;;;;2.12;88.05;101309.53;4976430;28;20054;-71
2021/01/18 04:34:33;;;;;;;22.77;11.65;;;;;;;1.90;90.35;101323.66;4974434;28;20545;-71
2021/01/18 04:37:00;;;;;;;26.50;12.18;;;;;;;1.97;89.19;101313.75;4987177;28;20038;-71
2021/01/18 04:39:25;;;;;;;24.88;12.20;;;;;;;2.02;88.61;101316.97;4975794;28;20034;-72
2021/01/18 04:41:51;;;;;;;19.90;10.23;;;;;;;1.96;89.72;101321.69;4991431;28;20516;-73
2021/01/18 04:44:16;;;;;;;21.50;10.65;;;;;;;1.96;89.02;101319.91;4980393;28;20018;-73
2021/01/18 04:46:44;;;;;;;22.52;11.05;;;;;;;1.92;89.83;101318.38;4985492;28;20042;-72
2021/01/18 04:49:11;;;;;;;20.45;11.45;;;;;;;1.97;89.05;101318.97;4973177;28;20443;-71
2021/01/18 04:51:53;;;;;;;28.20;13.15;;;;;;;2.02;88.40;101322.19;4997816;28;20026;-73
2021/01/18 04:54:20;;;;;;;24.85;12.55;;;;;;;2.05;88.37;101315.97;4977414;28;20050;-73
2021/01/18 04:57:08;;;;;;;25.45;11.88;;;;;;;2.05;88.17;101315.97;4988414;28;20022;-71
2021/01/18 04:59:44;;;;;;;28.10;13.30;;;;;;;2.09;87.85;101314.91;4978920;28;20432;-73
2021/01/18 05:02:20;;;;;;;23.33;11.02;;;;;;;2.00;88.17;101317.97;4976811;28;20046;-71
2021/01/18 05:04:47;;;;;;;25.23;12.90;;;;;;;1.95;88.98;101314.75;4980017;28;20085;-73
2021/01/18 05:07:52;;;;;;;20.95;11.05;;;;;;;1.96;88.75;101326.91;4980083;28;20035;-71
2021/01/18 05:10:25;;;;;;;25.85;13.45;;;;;;;2.06;87.74;101321.13;4972949;28;20026;-71
2021/01/18 05:12:55;;;;;;;24.55;12.63;;;;;;;1.97;88.22;101323.38;4984512;28;20037;-73
2021/01/18 05:15:22;;;;;;;24.98;13.13;;;;;;;2.01;87.69;101323.13;4979269;28;20399;-73
2021/01/18 05:17:49;;;;;;;20.77;11.23;;;;;;;1.96;88.04;101332.97;4979371;28;20173;-73
2021/01/18 05:20:17;;;;;;;23.85;12.05;;;;;;;1.96;88.15;101335.56;4982819;28;20034;-73
2021/01/18 05:22:44;;;;;;;23.95;10.90;;;;;;;1.96;87.90;101339.94;4983082;28;20041;-73
2021/01/18 05:25:12;;;;;;;23.38;11.63;;;;;;;1.95;88.00;101339.06;4983305;28;20050;-73
2021/01/18 05:27:57;;;;;;;25.80;12.70;;;;;;;1.95;88.00;101336.47;4978607;28;20073;-73
2021/01/18 05:30:22;;;;;;;15.45;8.45;;;;;;;1.95;88.00;101346.06;4984697;28;20026;-74
2021/01/18 05:32:59;;;;;;;21.02;8.80;;;;;;;1.79;90.10;101349.44;4973839;28;20031;-73
2021/01/18 05:35:24;;;;;;;11.88;7.43;;;;;;;1.77;89.91;101345.22;4978463;28;20035;-73
2021/01/18 05:38:01;;;;;;;20.10;9.20;;;;;;;1.84;88.83;101352.66;4976890;28;20089;-73
2021/01/18 05:40:27;;;;;;;23.80;11.82;;;;;;;1.87;88.52;101349.91;4989220;28;20467;-73
2021/01/18 05:42:53;;;;;;;18.60;11.32;;;;;;;1.95;88.17;101353.88;4979120;28;20023;-73
2021/01/18 05:45:35;;;;;;;23.13;10.63;;;;;;;1.92;88.07;101357.50;4985565;28;20082;-74
2021/01/18 05:48:01;;;;;;;30.15;12.15;;;;;;;1.99;87.77;101358.03;4980092;28;20026;-73
2021/01/18 05:50:28;;;;;;;22.52;11.93;;;;;;;1.99;87.71;101361.50;4985385;28;20026;-73
2021/01/18 05:52:54;;;;;;;21.00;9.02;;;;;;;1.92;87.94;101350.50;4980211;28;20027;-73
2021/01/18 05:55:23;;;;;;;17.60;10.10;;;;;;;1.91;88.71;101355.81;4981437;28;20285;-73
2021/01/18 05:57:57;;;;;;;19.95;8.98;;;;;;;1.85;88.51;101350.88;4982118;28;20077;-73
2021/01/18 06:00:26;;;;;;;16.20;9.23;;;;;;;1.89;88.64;101365.47;4971849;28;20062;-73
2021/01/18 06:02:52;;;;;;;22.75;10.23;;;;;;;1.91;88.02;101364.47;4982493;28;20033;-73
2021/01/18 06:05:28;;;;;;;22.88;11.10;;;;;;;1.89;87.82;101363.72;4976411;28;20027;-73
2021/01/18 06:07:54;;;;;;;22.73;9.93;;;;;;;1.94;87.72;101365.25;4977075;28;20026;-73
2021/01/18 06:10:32;;;;;;;20.65;10.25;;;;;;;1.91;87.80;101366.25;4976589;28;20019;-73
2021/01/18 06:12:57;;;;;;;17.88;9.13;;;;;;;1.86;88.16;101376.03;4977920;28;20033;-73
2021/01/18 06:15:24;;;;;;;18.85;8.82;;;;;;;1.82;88.09;101374.53;4979331;28;20022;-73
2021/01/18 06:17:56;;;;;;;28.45;11.40;;;;;;;1.89;87.87;101383.72;4983324;28;20037;-72
2021/01/18 06:20:28;;;;;;;16.45;9.25;;;;;;;1.84;88.09;101377.91;4979098;28;20110;-73
2021/01/18 06:22:59;;;;;;;16.10;7.63;;;;;;;1.78;88.11;101376.41;4975174;28;20026;-73
2021/01/18 06:25:31;;;;;;;17.15;9.32;;;;;;;1.81;88.24;101378.03;4973697;28;20031;-73
2021/01/18 06:27:57;;;;;;;19.05;9.95;;;;;;;1.88;87.43;101382.03;4972914;28;20503;-73
2021/01/18 06:30:26;;;;;;;24.17;10.13;;;;;;;1.84;87.69;101386.56;4978040;28;20109;-73
2021/01/18 06:32:53;;;;;;;19.15;9.90;;;;;;;1.79;88.44;101382.47;4967083;28;20018;-73
2021/01/18 06:35:24;;;;;;;19.65;7.88;;;;;;;1.72;88.80;101376.72;4975184;28;20061;-73
2021/01/18 06:37:58;;;;;;;22.40;11.82;;;;;;;1.85;88.17;101377.81;4975987;28;20039;-72
2021/01/18 06:40:32;;;;;;;18.48;9.27;;;;;;;1.79;88.31;101379.84;4984309;28;20391;-73
2021/01/18 06:42:59;;;;;;;21.08;10.02;;;;;;;1.81;87.77;101380.63;4977503;28;20022;-72
2021/01/18 06:45:40;;;;;;;22.05;9.77;;;;;;;1.78;87.84;101378.19;4975586;28;20189;-72
2021/01/18 06:48:08;;;;;;;19.70;9.85;;;;;;;1.71;88.43;101380.25;4980247;28;20514;-73
2021/01/18 06:50:39;;;;;;;19.90;8.45;;;;;;;1.68;87.87;101380.41;4978114;28;20058;-73
2021/01/18 06:53:10;;;;;;;22.77;9.10;;;;;;;1.68;88.05;101386.44;4982446;28;20085;-72
2021/01/18 06:55:38;;;;;;;;;;;;;;;1.63;89.07;101390.19;4976958;28;20062;-71
2021/01/18 06:58:36;;;;;;;20.10;10.27;;;;;;;1.64;89.08;101395.31;4971245;28;20371;-71
2021/01/18 07:01:02;;;;;;;15.45;8.27;;;;;;;1.62;89.15;101391.09;4968674;28;20105;-73
2021/01/18 07:03:30;;;;;;;21.85;10.52;;;;;;;1.65;88.32;101390.97;4970379;28;20023;-73
2021/01/18 07:05:56;;;;;;;20.02;9.77;;;;;;;1.67;88.59;101396.97;4971429;28;20114;-74
2021/01/18 07:08:35;;;;;;;21.55;10.95;;;;;;;1.72;88.29;101401.94;4971606;28;20396;-74
2021/01/18 07:11:09;;;;;;;19.77;11.38;;;;;;;1.73;88.23;101407.09;4971339;28;20082;-74
2021/01/18 07:13:35;;;;;;;20.83;12.55;;;;;;;1.81;87.86;101415.41;4971466;28;20023;-73
2021/01/18 07:16:04;;;;;;;28.80;13.38;;;;;;;1.82;87.83;101408.41;4971559;28;20511;-73
2021/01/18 07:18:34;;;;;;;24.05;11.80;;;;;;;1.86;87.60;101420.38;4971688;28;20077;-73
2021/01/18 07:21:03;;;;;;;21.35;12.18;;;;;;;1.86;87.75;101422.97;4975408;28;20395;-73
2021/01/18 07:23:30;;;;;;;20.67;10.18;;;;;;;1.72;89.51;101423.66;4974861;28;20019;-73
2021/01/18 07:26:05;;;;;;;21.27;12.30;;;;;;;1.87;87.97;101428.13;4975357;28;20026;-73
2021/01/18 07:28:33;;;;;;;21.75;11.18;;;;;;;1.90;87.71;101430.59;4975343;28;20058;-73
2021/01/18 07:30:59;;;;;;;22.63;10.90;;;;;;;1.88;87.94;101431.56;4981350;28;20454;-73
2021/01/18 07:33:25;;;;;;;23.40;12.80;;;;;;;1.97;87.48;101438.13;4994058;28;20538;-73
2021/01/18 07:35:51;;;;;;;25.15;13.02;;;;;;;1.95;87.55;101432.97;4994576;28;20030;-74
2021/01/18 07:38:16;;;;;;;20.30;10.02;;;;;;;1.92;87.96;101436.56;4994535;28;20031;-74
2021/01/18 07:41:01;;;;;;;30.65;13.00;;;;;;;2.06;87.01;101437.69;4994220;28;20018;-72
2021/01/18 07:43:41;;;;;;;21.17;11.27;;;;;;;1.99;87.18;101436.28;4992655;28;20030;-74
2021/01/18 07:46:25;;;;;;;36.55;13.27;;;;;;;1.99;87.49;101441.50;4994211;28;20046;-74
2021/01/18 07:48:51;;;;;;;17.85;9.90;;;;;;;1.95;87.55;101429.53;4993974;28;20030;-74
2021/01/18 07:51:24;;;;;;;22.15;11.10;;;;;;;2.01;87.15;101435.28;4994308;28;20022;-72
2021/01/18 07:53:49;;;;;;;18.08;9.15;;;;;;;1.95;88.01;101439.97;4994039;28;20026;-72
2021/01/18 07:56:29;;;;;;;18.42;10.30;;;;;;;2.04;86.99;101445.56;4994686;28;20030;-73
2021/01/18 07:58:59;;;;;;;22.38;10.70;;;;;;;2.10;86.51;101447.91;4994071;28;20034;-74
2021/01/18 08:01:33;;;;;;;24.73;8.75;;;;;;;1.99;87.45;101442.34;4993545;28;20034;-74
2021/01/18 08:04:19;;;;;;;16.63;7.63;;;;;;;1.92;88.45;101457.44;4993944;28;20088;-74
2021/01/18 08:07:03;;;;;;;17.67;8.73;;;;;;;1.83;89.17;101457.88;4994164;28;20026;-74
2021/01/18 08:09:28;;;;;;;20.10;9.05;;;;;;;1.98;87.38;101445.88;4992654;28;20745;-74
2021/01/18 08:12:32;;;;;;;19.40;8.93;;;;;;;2.12;86.86;101445.19;4974526;28;20162;-74
2021/01/18 08:15:04;;;;;;;13.27;7.88;;;;;;;2.05;87.06;101447.28;4972840;28;20058;-73
2021/01/18 08:17:30;;;;;;;13.23;7.43;;;;;;;2.05;87.08;101454.25;4974391;28;20031;-74
2021/01/18 08:20:09;;;;;;;21.05;9.30;;;;;;;2.18;86.12;101459.72;4974992;28;20038;-74
2021/01/18 08:22:34;;;;;;;14.68;7.88;;;;;;;2.22;85.91;101463.88;4954869;29;20320;-73
2021/01/18 08:25:01;;;;;;;18.10;8.65;;;;;;;2.24;85.76;101462.88;4954924;29;20290;-74
2021/01/18 08:27:55;;;;;;;14.93;8.00;;;;;;;2.23;86.30;101460.34;4955698;29;20309;-74
2021/01/18 08:30:26;;;;;;;17.05;8.02;;;;;;;2.21;86.25;101455.19;4971324;28;20030;-74
2021/01/18 08:32:54;;;;;;;;;;;;;;;2.34;85.37;101447.63;5010068;28;20044;-74
2021/01/18 08:35:27;;;;;;;19.95;9.80;;;;;;;2.35;85.30;101449.28;5001461;28;20351;-74
2021/01/18 08:37:59;;;;;;;21.40;10.13;;;;;;;2.34;85.27;101447.63;4997858;28;20446;-74
2021/01/18 08:40:36;;;;;;;19.73;10.48;;;;;;;2.39;84.94;101447.38;5000403;28;20033;-74
2021/01/18 08:43:02;;;;;;;21.73;9.75;;;;;;;2.44;84.53;101445.38;4997129;28;20101;-75
2021/01/18 08:45:36;;;;;;;20.33;9.20;;;;;;;2.38;84.87;101440.47;5001668;28;20117;-73
2021/01/18 08:48:04;;;;;;;17.83;8.65;;;;;;;2.31;85.55;101447.75;4999826;28;20183;-74
2021/01/18 08:50:43;;;;;;;20.08;8.73;;;;;;;2.41;84.88;101458.56;4993524;28;20119;-74
2021/01/18 08:53:26;;;;;;;18.55;9.88;;;;;;;2.42;84.72;101455.91;5004345;28;20022;-74
2021/01/18 08:55:53;;;;;;;22.48;9.63;;;;;;;2.45;84.34;101454.91;5003508;28;20033;-74
2021/01/18 08:58:36;;;;;;;24.10;11.32;;;;;;;2.45;84.23;101452.28;4993094;28;20479;-74
2021/01/18 09:01:04;;;;;;;21.08;9.68;;;;;;;2.46;83.96;101457.44;5011236;28;20100;-74
2021/01/18 09:03:29;;;;;;;18.48;10.95;;;;;;;2.46;84.22;101454.00;5010313;28;20069;-74
2021/01/18 09:05:57;;;;;;;20.40;9.90;;;;;;;2.46;84.35;101456.59;5001615;28;20488;-74
2021/01/18 09:08:24;;;;;;;21.05;11.15;;;;;;;2.41;84.48;101451.63;5004793;28;20402;-74
2021/01/18 09:10:58;;;;;;;22.73;11.60;;;;;;;2.49;84.15;101446.00;5003213;28;20365;-74
2021/01/18 09:13:27;;;;;;;26.80;11.77;;;;;;;2.44;84.35;101443.63;5003516;28;20018;-73
2021/01/18 09:15:55;;;;;;;23.90;10.85;;;;;;;2.46;84.21;101457.44;5011736;28;20049;-72
2021/01/18 09:18:22;;;;;;;17.02;9.35;;;;;;;2.39;84.75;101461.28;5011465;28;20037;-72
2021/01/18 09:20:49;;;;;;;26.63;10.77;;;;;;;2.46;84.67;101465.28;5000842;28;20017;-72
2021/01/18 09:23:16;;;;;;;22.50;10.65;;;;;;;2.53;84.47;101460.59;5005426;28;20025;-72
2021/01/18 09:25:42;;;;;;;20.55;10.15;;;;;;;2.57;84.12;101454.28;5011714;28;20084;-73
2021/01/18 09:28:09;;;;;;;21.33;10.68;;;;;;;2.64;83.82;101449.59;5012079;28;20017;-73
2021/01/18 09:30:39;;;;;;;17.35;9.18;;;;;;;2.64;84.09;101449.59;5002501;28;20030;-73
2021/01/18 09:33:07;;;;;;;23.88;11.70;;;;;;;2.70;83.48;101450.13;4997863;28;20030;-73
2021/01/18 09:35:40;;;;;;;22.33;11.27;;;;;;;2.68;83.67;101451.13;4996729;28;20033;-73
2021/01/18 09:38:10;;;;;;;23.08;10.68;;;;;;;2.79;83.01;101450.56;4972288;28;20113;-73
2021/01/18 09:40:38;;;;;;;22.60;10.67;;;;;;;2.81;83.13;101449.56;4990537;28;20033;-73
2021/01/18 09:43:05;;;;;;;25.38;12.18;;;;;;;2.85;83.11;101451.09;4991145;28;20038;-74
2021/01/18 09:45:32;;;;;;;20.42;10.85;;;;;;;2.85;82.94;101451.09;4992415;28;20034;-73
2021/01/18 09:48:04;;;;;;;18.63;11.10;;;;;;;2.85;83.07;101447.66;4991131;28;20121;-73
2021/01/18 09:50:29;;;;;;;21.65;10.45;;;;;;;2.74;84.34;101451.69;4991013;28;20141;-72
2021/01/18 09:52:55;;;;;;;26.73;13.18;;;;;;;2.88;83.17;101450.09;4992797;28;20027;-73
2021/01/18 09:55:24;;;;;;;24.02;11.70;;;;;;;2.89;83.45;101452.66;5000109;28;20530;-73
2021/01/18 09:58:00;;;;;;;25.75;12.95;;;;;;;2.99;82.85;101453.00;4984016;28;20034;-73
2021/01/18 10:00:29;;;;;;;25.38;12.43;;;;;;;2.93;83.15;101450.69;5005796;28;20026;-72
2021/01/18 10:02:55;;;;;;;23.33;13.20;;;;;;;2.90;83.51;101450.88;5005993;28;20029;-73
2021/01/18 10:05:27;;;;;;;20.42;10.75;;;;;;;2.89;83.39;101455.25;4996284;28;20527;-73
2021/01/18 10:07:54;;;;;;;24.38;11.27;;;;;;;2.89;83.83;101457.03;5009544;28;20026;-73
2021/01/18 10:10:20;;;;;;;26.60;11.93;;;;;;;2.97;83.25;101460.91;5002574;28;20422;-73
2021/01/18 10:12:51;;;;;;;25.50;12.90;;;;;;;3.06;82.63;101467.44;4996126;28;20355;-73
2021/01/18 10:15:28;;;;;;;18.80;10.85;;;;;;;3.05;83.31;101471.00;4991623;28;20034;-73
2021/01/18 10:17:55;;;;;;;15.98;9.93;;;;;;;2.98;84.37;101474.84;4992990;28;20058;-73
2021/01/18 10:20:22;;;;;;;20.73;11.07;;;;;;;3.11;83.32;101475.03;4994204;28;20085;-73
2021/01/18 10:22:48;;;;;;;19.83;10.75;;;;;;;3.11;83.44;101475.88;4990759;28;20034;-73
2021/01/18 10:25:13;;;;;;;20.85;12.15;;;;;;;3.23;82.32;101478.78;4990856;28;20037;-72
2021/01/18 10:27:49;;;;;;;17.52;10.30;;;;;;;3.14;82.47;101477.50;4994892;28;21071;-73
2021/01/18 10:30:20;;;;;;;20.88;11.32;;;;;;;3.31;82.03;101466.13;4994819;28;20019;-73
2021/01/18 10:32:48;;;;;;;21.35;12.25;;;;;;;3.34;81.83;101468.59;5001437;28;20065;-73
2021/01/18 10:35:35;;;;;;;25.38;12.15;;;;;;;3.32;81.98;101470.47;5003846;28;20368;-73
2021/01/18 10:38:09;;;;;;;24.48;11.88;;;;;;;3.33;82.21;101464.28;5000934;28;20041;-73
2021/01/18 10:40:35;;;;;;;18.25;10.55;;;;;;;3.28;82.42;101463.69;4990759;28;20683;-72
2021/01/18 10:43:02;;;;;;;20.77;11.75;;;;;;;3.27;82.67;101459.41;4992197;28;20030;-73
2021/01/18 10:45:28;;;;;;;20.58;10.82;;;;;;;3.23;83.16;101453.47;4988338;28;20097;-73
2021/01/18 10:47:57;;;;;;;22.40;11.50;;;;;;;3.35;82.43;101452.81;4992813;28;20499;-72
2021/01/18 10:50:24;;;;;;;21.48;10.65;;;;;;;3.40;82.29;101449.97;4989090;28;20116;-73
2021/01/18 10:52:49;;;;;;;20.90;11.45;;;;;;;3.49;82.04;101449.47;4988443;28;20472;-73
2021/01/18 10:55:17;;;;;;;18.55;10.93;;;;;;;3.39;82.55;101441.28;4992117;28;20033;-72
2021/01/18 10:57:47;;;;;;;17.02;9.95;;;;;;;3.47;82.49;101447.88;4988031;28;20023;-72
2021/01/18 11:00:14;;;;;;;20.20;11.00;;;;;;;3.52;82.62;101444.06;4998936;28;20030;-72
2021/01/18 11:02:42;;;;;;;21.17;11.07;;;;;;;3.58;81.94;101446.34;4996462;28;20499;-73
2021/01/18 11:05:09;;;;;;;18.00;9.57;;;;;;;3.57;82.05;101446.44;4991844;28;20088;-72
2021/01/18 11:07:37;;;;;;;23.55;12.20;;;;;;;3.66;81.92;101438.09;4997011;28;20109;-73
2021/01/18 11:10:03;;;;;;;19.17;9.95;;;;;;;3.66;82.07;101440.69;4993460;28;20109;-72
2021/01/18 11:12:38;;;;;;;26.52;11.18;;;;;;;3.75;81.81;101444.59;4990878;28;20026;-73
2021/01/18 11:15:10;;;;;;;20.60;10.93;;;;;;;3.76;82.00;101441.88;4992937;28;20396;-72
2021/01/18 11:17:35;;;;;;;23.45;11.63;;;;;;;3.90;81.39;101448.94;4993318;28;20042;-72
2021/01/18 11:20:01;;;;;;;19.75;9.93;;;;;;;3.90;81.57;101441.09;4991288;28;20026;-72
2021/01/18 11:22:26;;;;;;;19.08;10.73;;;;;;;3.95;81.61;101431.22;4990747;28;20378;-74
2021/01/18 11:24:52;;;;;;;18.38;9.82;;;;;;;3.96;81.83;101437.31;4991742;28;20031;-73
2021/01/18 11:27:17;;;;;;;16.33;8.70;;;;;;;3.99;82.12;101431.91;4999334;28;20407;-74
2021/01/18 11:29:43;;;;;;;22.35;12.65;;;;;;;4.12;80.79;101437.25;4991776;28;20037;-73
2021/01/18 11:32:08;;;;;;;23.42;12.98;;;;;;;4.22;79.38;101428.81;4989902;28;20499;-73